createdAt,value
2022-08-02T00:01:42.800Z,66.73
2022-08-02T00:04:16.506Z,66.72
2022-08-02T00:06:50.182Z,66.41
2022-08-02T00:09:23.875Z,66.06
2022-08-02T00:11:57.574Z,66.03
2022-08-02T00:14:31.324Z,66.48
2022-08-02T00:17:06.554Z,66.42
2022-08-02T00:19:40.176Z,66.27
2022-08-02T00:22:13.995Z,66.32
2022-08-02T00:24:47.962Z,66.35
2022-08-02T00:27:21.617Z,66.84
2022-08-02T00:29:55.592Z,66.26
2022-08-02T00:32:30.750Z,66.58
2022-08-02T00:35:04.497Z,66.47
2022-08-02T00:37:40.925Z,66.75
2022-08-02T00:40:14.919Z,66.71
2022-08-02T00:42:48.584Z,66.82
2022-08-02T00:45:22.300Z,67.20
2022-08-02T00:48:17.473Z,67.11
2022-08-02T00:50:51.063Z,67.25
2022-08-02T00:53:24.866Z,67.41
2022-08-02T00:55:58.446Z,67.25
2022-08-02T00:58:32.566Z,67.37
2022-08-02T01:01:06.253Z,67.67
2022-08-02T01:03:41.355Z,67.63
2022-08-02T01:06:14.945Z,67.30
2022-08-02T01:08:48.584Z,67.13
2022-08-02T01:11:22.298Z,66.79
2022-08-02T01:13:58.248Z,66.44
2022-08-02T01:16:35.911Z,66.13
2022-08-02T01:19:36.628Z,66.30
2022-08-02T01:22:34.520Z,66.17
2022-08-02T01:25:30.364Z,66.10
2022-08-02T01:28:24.446Z,66.17
2022-08-02T01:31:02.507Z,66.22
2022-08-02T01:33:42.414Z,66.30
2022-08-02T01:36:20.267Z,66.25
2022-08-02T01:38:55.835Z,66.33
2022-08-02T01:41:33.651Z,66.46
2022-08-02T01:44:09.288Z,66.60
2022-08-02T01:46:44.362Z,66.46
2022-08-02T01:49:21.945Z,66.89
2022-08-02T01:52:13.674Z,66.96
2022-08-02T01:54:51.071Z,66.96
2022-08-02T01:57:26.006Z,67.06
2022-08-02T02:00:01.960Z,67.29
2022-08-02T02:02:40.333Z,67.19
2022-08-02T02:05:17.015Z,67.38
2022-08-02T02:07:52.593Z,67.28
2022-08-02T02:10:30.099Z,66.83
2022-08-02T02:13:06.843Z,66.83
2022-08-02T02:15:45.920Z,67.08
2022-08-02T02:18:25.263Z,66.61
2022-08-02T02:20:59.111Z,66.71
2022-08-02T02:23:35.648Z,67.16
2022-08-02T02:26:15.251Z,67.14
2022-08-02T02:28:54.151Z,66.89
2022-08-02T02:31:31.200Z,67.26
2022-08-02T02:34:10.617Z,67.10
2022-08-02T02:36:49.963Z,67.44
2022-08-02T02:39:26.179Z,67.48
2022-08-02T02:42:04.436Z,67.50
2022-08-02T02:44:40.394Z,67.38
2022-08-02T02:47:17.096Z,67.62
2022-08-02T02:49:52.800Z,67.55
2022-08-02T02:52:28.595Z,67.94
2022-08-02T02:55:03.515Z,68.31
2022-08-02T02:57:38.716Z,67.96
2022-08-02T03:00:15.514Z,68.30
2022-08-02T03:02:50.619Z,68.34
2022-08-02T03:05:24.285Z,68.37
2022-08-02T03:07:57.900Z,68.30
2022-08-02T03:10:32.053Z,68.76
2022-08-02T03:13:05.847Z,68.69
2022-08-02T03:15:43.947Z,68.75
2022-08-02T03:18:34.784Z,68.68
2022-08-02T03:21:10.009Z,68.57
2022-08-02T03:23:44.628Z,68.81
2022-08-02T03:26:18.714Z,69.08
2022-08-02T03:28:52.276Z,68.93
2022-08-02T03:31:25.813Z,68.86
2022-08-02T03:34:02.694Z,69.23
2022-08-02T03:36:37.814Z,68.61
2022-08-02T03:39:14.286Z,68.92
2022-08-02T03:41:49.859Z,68.67
2022-08-02T03:44:24.715Z,68.86
2022-08-02T03:46:59.503Z,68.58
2022-08-02T03:49:35.824Z,68.85
2022-08-02T03:52:10.315Z,68.86
2022-08-02T03:54:45.323Z,68.69
2022-08-02T03:57:19.643Z,69.09
2022-08-02T03:59:53.233Z,68.68
2022-08-02T04:02:26.843Z,68.94
2022-08-02T04:05:01.783Z,69.04
2022-08-02T04:08:32.737Z,68.53
2022-08-02T04:10:29.225Z,68.46
2022-08-02T04:13:02.742Z,68.44
2022-08-02T04:15:36.905Z,68.19
2022-08-02T04:18:10.770Z,68.29
2022-08-02T04:20:47.372Z,68.12
2022-08-02T04:23:22.900Z,67.58
2022-08-02T04:25:58.431Z,67.72
2022-08-02T04:28:32.908Z,67.83
2022-08-02T04:31:07.688Z,67.86
2022-08-02T04:33:41.782Z,67.64
2022-08-02T04:36:30.956Z,67.81
2022-08-02T04:39:05.597Z,67.74
2022-08-02T04:41:43.652Z,67.73
2022-08-02T04:44:17.756Z,67.77
2022-08-02T04:46:52.284Z,67.24
2022-08-02T04:49:25.968Z,67.07
2022-08-02T04:52:01.922Z,66.73
2022-08-02T04:54:35.643Z,66.28
2022-08-02T04:57:22.999Z,66.42
2022-08-02T04:59:58.273Z,66.69
2022-08-02T05:02:31.876Z,66.46
2022-08-02T05:05:10.156Z,66.49
2022-08-02T05:07:45.483Z,66.49
2022-08-02T05:10:19.252Z,66.72
2022-08-02T05:12:53.435Z,66.14
2022-08-02T05:15:31.537Z,66.28
2022-08-02T05:18:07.307Z,66.42
2022-08-02T05:20:40.877Z,66.00
2022-08-02T05:23:15.937Z,65.76
2022-08-02T05:25:49.458Z,65.78
2022-08-02T05:28:23.414Z,65.93
2022-08-02T05:30:57.027Z,66.06
2022-08-02T05:33:30.659Z,65.69
2022-08-02T05:36:04.367Z,65.94
2022-08-02T05:38:39.549Z,66.00
2022-08-02T05:41:13.254Z,65.89
2022-08-02T05:43:46.940Z,65.79
2022-08-02T05:46:20.576Z,65.88
2022-08-02T05:48:54.204Z,65.99
2022-08-02T05:51:37.486Z,66.17
2022-08-02T05:54:21.021Z,66.36
2022-08-02T05:56:57.698Z,66.02
2022-08-02T05:59:36.546Z,66.29
2022-08-02T06:02:30.215Z,66.39
2022-08-02T06:05:06.767Z,66.69
2022-08-02T06:07:43.517Z,66.77
2022-08-02T06:10:22.026Z,66.99
2022-08-02T06:13:06.972Z,66.98
2022-08-02T06:15:52.066Z,66.81
2022-08-02T06:18:29.237Z,66.86
2022-08-02T06:22:33.088Z,66.96
2022-08-02T06:23:59.932Z,66.83
2022-08-02T06:26:36.035Z,66.97
2022-08-02T06:29:10.082Z,67.25
2022-08-02T06:31:45.197Z,66.69
2022-08-02T06:34:18.991Z,67.25
2022-08-02T06:37:01.438Z,67.12
2022-08-02T06:39:45.105Z,67.26
2022-08-02T06:42:27.671Z,66.94
2022-08-02T06:45:03.127Z,67.13
2022-08-02T06:47:36.717Z,66.61
2022-08-02T06:50:11.214Z,66.39
2022-08-02T06:52:44.892Z,66.09
2022-08-02T06:55:18.808Z,66.20
2022-08-02T06:57:53.948Z,65.63
2022-08-02T07:00:28.741Z,65.57
2022-08-02T07:03:02.998Z,64.38
2022-08-02T07:05:36.787Z,62.98
2022-08-02T07:08:10.446Z,61.82
2022-08-02T07:10:44.287Z,61.12
2022-08-02T07:13:19.535Z,60.93
2022-08-02T07:15:53.498Z,59.37
2022-08-02T07:18:27.309Z,57.76
2022-08-02T07:21:00.954Z,57.63
2022-08-02T07:23:35.018Z,56.61
2022-08-02T07:26:08.682Z,54.45
2022-08-02T07:28:43.738Z,53.71
2022-08-02T07:31:17.458Z,52.90
2022-08-02T07:33:51.087Z,52.32
2022-08-02T07:36:24.951Z,51.38
2022-08-02T07:38:59.357Z,51.53
2022-08-02T07:41:32.998Z,51.37
2022-08-02T07:44:08.279Z,51.52
2022-08-02T07:46:42.464Z,49.79
2022-08-02T07:49:18.866Z,48.74
2022-08-02T07:51:52.717Z,47.57
2022-08-02T07:54:26.573Z,48.11
2022-08-02T07:57:01.325Z,47.99
2022-08-02T07:59:36.505Z,48.39
2022-08-02T08:02:10.435Z,47.06
2022-08-02T08:04:44.306Z,45.99
2022-08-02T08:07:17.948Z,45.41
2022-08-02T08:09:56.453Z,45.86
2022-08-02T08:12:30.299Z,44.29
2022-08-02T08:15:06.438Z,43.12
2022-08-02T08:17:40.353Z,41.29
2022-08-02T08:20:16.165Z,39.93
2022-08-02T08:22:50.315Z,39.88
2022-08-02T08:25:24.133Z,38.73
2022-08-02T08:28:01.035Z,37.83
2022-08-02T08:30:36.065Z,37.90
2022-08-02T08:33:09.983Z,36.72
2022-08-02T08:35:43.975Z,37.32
2022-08-02T08:38:17.791Z,37.31
2022-08-02T08:40:51.448Z,36.16
2022-08-02T08:43:25.163Z,36.20
2022-08-02T08:46:00.269Z,36.53
2022-08-02T08:48:39.021Z,36.53
2022-08-02T08:51:16.737Z,36.49
2022-08-02T08:53:52.290Z,36.11
2022-08-02T08:56:30.945Z,37.20
2022-08-02T08:59:06.803Z,37.55
2022-08-02T09:01:49.728Z,38.23
2022-08-02T09:04:24.590Z,37.98
2022-08-02T09:06:58.278Z,37.92
2022-08-02T09:09:31.957Z,38.21
2022-08-02T09:12:16.108Z,37.95
2022-08-02T09:14:50.325Z,38.02
2022-08-02T09:17:26.535Z,36.05
2022-08-02T09:20:10.507Z,33.63
2022-08-02T09:22:44.210Z,31.87
2022-08-02T09:25:18.137Z,32.09
2022-08-02T09:27:52.001Z,33.21
2022-08-02T09:30:28.162Z,33.42
2022-08-02T09:33:05.653Z,33.65
2022-08-02T09:36:06.503Z,34.25
2022-08-02T09:38:37.072Z,34.87
2022-08-02T09:41:22.933Z,37.19
2022-08-02T09:44:04.659Z,39.14
2022-08-02T09:46:41.636Z,39.77
2022-08-02T09:49:18.523Z,41.30
2022-08-02T09:51:53.577Z,42.20
2022-08-02T09:54:29.328Z,43.95
2022-08-02T09:57:03.765Z,44.65
2022-08-02T09:59:37.758Z,45.57
2022-08-02T10:02:17.008Z,47.09
2022-08-02T10:04:54.291Z,48.08
2022-08-02T10:07:28.397Z,48.30
2022-08-02T10:10:02.513Z,49.05
2022-08-02T10:12:38.022Z,49.24
2022-08-02T10:15:13.096Z,49.55
2022-08-02T10:17:48.152Z,49.95
2022-08-02T10:20:23.973Z,50.02
2022-08-02T10:23:00.131Z,50.38
2022-08-02T10:25:35.461Z,50.76
2022-08-02T10:28:16.595Z,51.64
2022-08-02T10:30:51.414Z,52.31
2022-08-02T10:33:27.666Z,52.10
2022-08-02T10:36:04.486Z,51.98
2022-08-02T10:38:41.848Z,51.93
2022-08-02T10:41:15.650Z,52.75
2022-08-02T10:43:50.474Z,53.05
2022-08-02T10:46:33.701Z,52.70
2022-08-02T10:52:11.215Z,53.42
2022-08-02T10:54:49.609Z,53.80
2022-08-02T10:57:27.853Z,53.32
2022-08-02T11:00:11.190Z,53.45
2022-08-02T11:02:46.940Z,52.00
2022-08-02T11:05:28.954Z,50.35
2022-08-02T11:08:25.221Z,49.70
2022-08-02T11:11:01.449Z,48.61
2022-08-02T11:14:01.247Z,48.61
2022-08-02T11:17:10.147Z,46.92
2022-08-02T11:20:21.911Z,46.70
2022-08-02T11:22:56.731Z,45.19
2022-08-02T11:26:02.151Z,43.87
2022-08-02T11:28:29.052Z,43.29
2022-08-02T11:31:03.428Z,43.33
2022-08-02T11:33:37.511Z,44.93
2022-08-02T11:36:11.042Z,45.13
2022-08-02T11:38:44.739Z,45.70
2022-08-02T11:41:46.881Z,46.16
2022-08-02T11:44:16.203Z,46.84
2022-08-02T11:47:00.305Z,47.08
2022-08-02T11:49:34.049Z,48.04
2022-08-02T11:52:11.716Z,48.04
2022-08-02T11:54:45.734Z,48.68
2022-08-02T11:57:22.672Z,49.11
2022-08-02T11:59:57.861Z,49.64
2022-08-02T12:02:34.026Z,50.10
2022-08-02T12:05:09.331Z,50.28
2022-08-02T12:07:45.562Z,50.28
2022-08-02T12:10:21.250Z,50.78
2022-08-02T12:12:57.987Z,50.51
2022-08-02T12:15:37.472Z,50.29
2022-08-02T12:18:29.670Z,51.08
2022-08-02T12:21:03.634Z,50.39
2022-08-02T12:24:00.638Z,49.54
2022-08-02T12:26:43.664Z,49.27
2022-08-02T12:29:57.653Z,49.34
2022-08-02T12:32:25.986Z,47.85
2022-08-02T12:35:04.437Z,47.98
2022-08-02T12:37:39.369Z,47.08
2022-08-02T12:40:27.435Z,46.84
2022-08-02T12:43:02.799Z,45.57
2022-08-02T12:45:50.387Z,45.69
2022-08-02T12:48:38.345Z,45.86
2022-08-02T12:51:56.548Z,46.33
2022-08-02T12:54:40.360Z,44.91
2022-08-02T12:57:15.433Z,44.42
2022-08-02T12:59:53.238Z,44.89
2022-08-02T13:02:28.466Z,44.51
2022-08-02T13:05:02.159Z,44.34
2022-08-02T13:07:36.255Z,44.57
2022-08-02T13:10:10.883Z,44.62
2022-08-02T13:12:44.634Z,43.97
2022-08-02T13:15:49.031Z,43.74
2022-08-02T13:18:14.569Z,43.21
2022-08-02T13:20:48.458Z,42.96
2022-08-02T13:23:22.297Z,43.20
2022-08-02T13:25:56.056Z,43.18
2022-08-02T13:28:29.828Z,44.56
2022-08-02T13:31:20.844Z,43.81
2022-08-02T13:33:58.500Z,43.39
2022-08-02T13:36:32.260Z,43.35
2022-08-02T13:39:06.571Z,43.12
2022-08-02T13:41:40.266Z,43.13
2022-08-02T13:44:13.954Z,42.51
2022-08-02T13:46:47.717Z,43.10
2022-08-02T13:49:50.658Z,42.98
2022-08-02T13:52:16.730Z,43.38
2022-08-02T13:54:50.510Z,43.63
2022-08-02T13:57:24.008Z,42.97
2022-08-02T13:59:59.280Z,43.56
2022-08-02T14:02:36.196Z,44.14
2022-08-02T14:05:14.968Z,44.16
2022-08-02T14:07:50.719Z,44.13
2022-08-02T14:10:26.099Z,44.37
2022-08-02T14:13:04.475Z,45.18
2022-08-02T14:15:38.405Z,44.74
2022-08-02T14:18:12.326Z,43.98
2022-08-02T14:20:47.618Z,44.03
2022-08-02T14:23:42.429Z,43.63
2022-08-02T14:26:26.835Z,43.54
2022-08-02T14:29:01.616Z,43.64
2022-08-02T14:31:37.895Z,44.12
2022-08-02T14:34:14.304Z,44.08
2022-08-02T14:36:53.565Z,44.05
2022-08-02T14:39:27.521Z,43.93
2022-08-02T14:42:17.677Z,43.45
2022-08-02T14:44:51.427Z,43.45
2022-08-02T14:47:25.088Z,43.50
2022-08-02T14:49:58.885Z,43.64
2022-08-02T14:52:33.967Z,43.93
2022-08-02T14:55:08.046Z,44.44
2022-08-02T14:57:41.703Z,44.72
2022-08-02T15:00:17.988Z,45.27
2022-08-02T15:02:51.644Z,45.65
2022-08-02T15:05:25.166Z,45.97
2022-08-02T15:08:00.270Z,46.12
2022-08-02T15:10:33.853Z,45.81
2022-08-02T15:13:07.675Z,46.35
2022-08-02T15:15:43.822Z,46.43
2022-08-02T15:18:17.562Z,46.39
2022-08-02T15:20:57.814Z,46.76
2022-08-02T15:23:37.575Z,46.69
2022-08-02T15:26:12.257Z,46.38
2022-08-02T15:28:45.941Z,46.53
2022-08-02T15:31:22.573Z,46.79
2022-08-02T15:34:07.498Z,46.91
2022-08-02T15:36:41.533Z,46.56
2022-08-02T15:39:16.591Z,45.85
2022-08-02T15:41:50.107Z,45.58
2022-08-02T15:44:25.081Z,45.78
2022-08-02T15:46:59.029Z,46.15
2022-08-02T15:49:32.782Z,46.59
2022-08-02T15:52:06.874Z,46.21
2022-08-02T15:54:42.045Z,46.33
2022-08-02T15:57:15.697Z,46.83
2022-08-02T15:59:49.568Z,47.51
2022-08-02T16:02:23.452Z,47.33
2022-08-02T16:04:57.233Z,47.34
2022-08-02T16:07:30.841Z,47.02
2022-08-02T16:10:06.954Z,47.62
2022-08-02T16:12:40.581Z,47.79
2022-08-02T16:15:14.310Z,47.29
2022-08-02T16:17:51.536Z,46.45
2022-08-02T16:20:28.232Z,46.34
2022-08-02T16:23:04.497Z,46.46
2022-08-02T16:25:42.101Z,46.27
2022-08-02T16:28:15.862Z,46.06
2022-08-02T16:31:04.819Z,45.94
2022-08-02T16:33:42.557Z,46.25
2022-08-02T16:36:19.601Z,46.09
2022-08-02T16:38:54.336Z,45.99
2022-08-02T16:41:50.760Z,45.82
2022-08-02T16:44:41.367Z,45.68
2022-08-02T16:47:43.575Z,46.12
2022-08-02T16:50:27.204Z,45.75
2022-08-02T16:53:07.096Z,45.79
2022-08-02T16:55:51.691Z,45.65
2022-08-02T16:58:28.330Z,46.04
2022-08-02T17:01:02.001Z,46.25
2022-08-02T17:03:55.945Z,45.95
2022-08-02T17:06:28.978Z,45.68
2022-08-02T17:09:02.450Z,45.69
2022-08-02T17:11:41.436Z,46.53
2022-08-02T17:14:20.561Z,46.82
2022-08-02T17:16:54.057Z,47.22
2022-08-02T17:19:27.693Z,47.36
2022-08-02T17:22:01.291Z,47.32
2022-08-02T17:24:34.834Z,47.38
2022-08-02T17:27:08.782Z,47.68
2022-08-02T17:29:43.820Z,47.65
2022-08-02T17:32:19.741Z,47.88
2022-08-02T17:34:59.880Z,47.82
2022-08-02T17:37:35.740Z,47.87
2022-08-02T17:40:15.873Z,48.03
2022-08-02T17:42:53.539Z,47.71
2022-08-02T17:46:00.000Z,48.05
2022-08-02T17:48:22.296Z,47.87
2022-08-02T17:51:10.761Z,48.49
2022-08-02T17:53:44.477Z,48.50
2022-08-02T17:56:23.665Z,48.94
2022-08-02T17:58:57.431Z,49.24
2022-08-02T18:01:32.652Z,49.25
2022-08-02T18:04:06.363Z,49.33
2022-08-02T18:06:40.847Z,49.93
2022-08-02T18:09:14.668Z,50.12
2022-08-02T18:11:52.524Z,50.21
2022-08-02T18:14:26.984Z,50.17
2022-08-02T18:17:04.863Z,50.49
2022-08-02T18:19:43.227Z,50.47
2022-08-02T18:22:29.042Z,51.04
2022-08-02T18:25:09.058Z,51.30
2022-08-02T18:27:43.305Z,51.45
2022-08-02T18:30:21.648Z,52.22
2022-08-02T18:34:00.517Z,52.14
2022-08-02T18:35:56.924Z,52.59
2022-08-02T18:38:31.639Z,52.73
2022-08-02T18:44:01.637Z,52.81
2022-08-02T18:46:35.211Z,53.73
2022-08-02T18:49:14.954Z,54.02
2022-08-02T18:51:49.429Z,54.64
2022-08-02T18:54:26.774Z,54.83
2022-08-02T18:58:01.800Z,54.79
2022-08-02T18:59:57.997Z,55.01
2022-08-02T19:02:31.481Z,55.53
2022-08-02T19:05:08.467Z,56.05
2022-08-02T19:07:49.815Z,56.45
2022-08-02T19:10:25.074Z,56.79
2022-08-02T19:12:58.882Z,57.36
2022-08-02T19:15:34.313Z,57.44
2022-08-02T19:18:08.325Z,57.89
2022-08-02T19:23:37.130Z,58.13
2022-08-02T19:26:28.454Z,57.74
2022-08-02T19:29:02.313Z,57.89
2022-08-02T19:31:59.961Z,58.06
2022-08-02T19:34:35.704Z,58.47
2022-08-02T19:37:11.095Z,58.75
2022-08-02T19:39:51.165Z,58.51
2022-08-02T19:42:25.194Z,59.20
2022-08-02T19:44:58.711Z,59.55
2022-08-02T19:47:38.435Z,59.50
2022-08-02T19:50:15.005Z,59.23
2022-08-02T19:52:50.005Z,59.80
2022-08-02T19:56:01.320Z,59.42
2022-08-02T19:58:20.063Z,59.57
2022-08-02T20:00:57.255Z,59.91
2022-08-02T20:03:51.104Z,59.42
2022-08-02T20:06:29.931Z,59.41
2022-08-02T20:09:05.515Z,59.63
2022-08-02T20:11:39.226Z,59.60
2022-08-02T20:14:13.583Z,60.14
2022-08-02T20:16:47.171Z,60.08
2022-08-02T20:19:23.598Z,59.99
2022-08-02T20:21:59.672Z,60.21
2022-08-02T20:24:35.431Z,60.17
2022-08-02T20:27:12.398Z,60.28
2022-08-02T20:29:49.846Z,60.35
2022-08-02T20:32:23.862Z,60.58
2022-08-02T20:34:57.672Z,60.70
2022-08-02T20:38:00.089Z,61.77
2022-08-02T20:40:26.233Z,61.19
2022-08-02T20:42:59.943Z,62.36
2022-08-02T20:45:33.727Z,63.03
2022-08-02T20:48:08.007Z,63.31
2022-08-02T20:50:52.342Z,63.77
2022-08-02T20:53:30.108Z,64.47
2022-08-02T20:56:05.535Z,64.98
2022-08-02T20:58:40.384Z,65.27
2022-08-02T21:01:13.998Z,65.29
2022-08-02T21:03:47.705Z,65.98
2022-08-02T21:06:32.159Z,66.12
2022-08-02T21:09:07.528Z,66.54
2022-08-02T21:11:43.038Z,66.67
2022-08-02T21:14:24.694Z,66.65
2022-08-02T21:16:58.985Z,66.83
2022-08-02T21:19:32.914Z,66.94
2022-08-02T21:22:06.562Z,66.99
2022-08-02T21:24:41.153Z,67.52
2022-08-02T21:27:53.164Z,67.42
2022-08-02T21:30:10.501Z,67.57
2022-08-02T21:32:44.918Z,67.43
2022-08-02T21:35:20.402Z,67.44
2022-08-02T21:37:58.181Z,67.69
2022-08-02T21:40:32.033Z,67.88
2022-08-02T21:43:08.838Z,67.35
2022-08-02T21:45:53.902Z,67.40
2022-08-02T21:48:29.397Z,67.71
2022-08-02T21:51:03.477Z,67.54
2022-08-02T21:53:42.556Z,67.31
2022-08-02T21:56:16.752Z,67.11
2022-08-02T21:58:52.325Z,67.25
2022-08-02T22:01:26.226Z,67.29
2022-08-02T22:04:03.370Z,67.36
2022-08-02T22:06:37.005Z,67.62
2022-08-02T22:12:10.141Z,67.86
2022-08-02T22:14:55.059Z,67.84
2022-08-02T22:17:46.782Z,68.19
2022-08-02T22:20:24.093Z,68.10
2022-08-02T22:22:57.740Z,68.47
2022-08-02T22:25:36.860Z,68.45
2022-08-02T22:31:08.190Z,69.01
2022-08-02T22:34:00.560Z,69.06
2022-08-02T22:36:38.733Z,68.91
2022-08-02T22:39:19.471Z,69.35
2022-08-02T22:42:05.610Z,69.28
2022-08-02T22:44:40.777Z,68.98
2022-08-02T22:47:19.286Z,69.20
2022-08-02T22:49:58.966Z,69.66
2022-08-02T22:52:33.343Z,69.71
2022-08-02T22:55:08.092Z,69.83
2022-08-02T22:57:56.431Z,69.64
2022-08-02T22:58:47.623Z,58.04
2022-08-02T22:58:59.724Z,52.76
2022-08-02T22:59:04.102Z,67.95
2022-08-02T22:59:04.975Z,68.78
2022-08-02T23:00:30.616Z,69.80
2022-08-02T23:03:06.830Z,70.16
2022-08-02T23:05:40.814Z,70.42
2022-08-02T23:08:14.536Z,70.45
2022-08-02T23:10:48.229Z,70.42
2022-08-02T23:13:26.603Z,70.34
2022-08-02T23:16:19.049Z,70.42
2022-08-02T23:19:11.333Z,70.28
2022-08-02T23:22:01.003Z,69.91
2022-08-02T23:24:35.754Z,69.76
2022-08-02T23:27:09.434Z,69.83
2022-08-02T23:29:43.052Z,69.59
2022-08-02T23:32:17.186Z,69.51
2022-08-02T23:34:52.418Z,69.82
2022-08-02T23:37:26.930Z,69.73
2022-08-02T23:40:00.479Z,69.58
2022-08-02T23:42:34.126Z,69.44
2022-08-02T23:45:08.491Z,69.38
2022-08-02T23:47:42.153Z,69.46
2022-08-02T23:50:17.380Z,69.89
2022-08-02T23:52:51.087Z,69.54
2022-08-02T23:55:24.734Z,69.64
2022-08-02T23:57:58.465Z,69.22
